sensor_id;sensor_type;location;lat;lon;timestamp;P1;durP1;ratioP1;P2;durP2;ratioP2
31686;SDS011;18285;51.330;4.946;2022-09-19T00:15:55;2.28;;;1.35;;
31686;SDS011;18285;51.330;4.946;2022-09-19T00:40:06;1.65;;;1.15;;
31686;SDS011;18285;51.330;4.946;2022-09-19T01:04:20;3.00;;;0.98;;
31686;SDS011;18285;51.330;4.946;2022-09-19T01:28:34;2.70;;;1.13;;
31686;SDS011;18285;51.330;4.946;2022-09-19T02:17:30;3.00;;;0.90;;
31686;SDS011;18285;51.330;4.946;2022-09-19T02:42:14;1.92;;;0.95;;
31686;SDS011;18285;51.330;4.946;2022-09-19T03:06:34;2.33;;;0.98;;
31686;SDS011;18285;51.330;4.946;2022-09-19T03:30:48;3.40;;;1.00;;
31686;SDS011;18285;51.330;4.946;2022-09-19T03:54:59;2.10;;;0.88;;
31686;SDS011;18285;51.330;4.946;2022-09-19T04:19:10;1.80;;;0.95;;
31686;SDS011;18285;51.330;4.946;2022-09-19T04:43:22;2.63;;;0.97;;
31686;SDS011;18285;51.330;4.946;2022-09-19T05:07:35;1.63;;;0.70;;
31686;SDS011;18285;51.330;4.946;2022-09-19T05:31:46;3.35;;;1.42;;
31686;SDS011;18285;51.330;4.946;2022-09-19T05:55:57;10.30;;;2.92;;
31686;SDS011;18285;51.330;4.946;2022-09-19T06:20:08;6.45;;;1.92;;
31686;SDS011;18285;51.330;4.946;2022-09-19T06:44:19;4.65;;;1.80;;
31686;SDS011;18285;51.330;4.946;2022-09-19T07:08:32;4.70;;;1.52;;
31686;SDS011;18285;51.330;4.946;2022-09-19T07:32:42;3.63;;;1.20;;
31686;SDS011;18285;51.330;4.946;2022-09-19T07:56:53;5.35;;;1.23;;
31686;SDS011;18285;51.330;4.946;2022-09-19T08:21:04;3.20;;;1.80;;
31686;SDS011;18285;51.330;4.946;2022-09-19T08:45:17;4.07;;;1.88;;
31686;SDS011;18285;51.330;4.946;2022-09-19T09:34:04;1.83;;;1.00;;
31686;SDS011;18285;51.330;4.946;2022-09-19T10:47:04;2.42;;;0.80;;
31686;SDS011;18285;51.330;4.946;2022-09-19T11:11:36;2.70;;;0.85;;
31686;SDS011;18285;51.330;4.946;2022-09-19T12:25:08;1.15;;;0.50;;
31686;SDS011;18285;51.330;4.946;2022-09-19T12:49:33;1.90;;;0.60;;
31686;SDS011;18285;51.330;4.946;2022-09-19T13:13:58;1.33;;;0.55;;
31686;SDS011;18285;51.330;4.946;2022-09-19T13:38:36;1.30;;;0.40;;
31686;SDS011;18285;51.330;4.946;2022-09-19T14:02:59;1.95;;;0.63;;
31686;SDS011;18285;51.330;4.946;2022-09-19T14:52:19;2.95;;;0.50;;
31686;SDS011;18285;51.330;4.946;2022-09-19T15:16:33;3.75;;;0.80;;
31686;SDS011;18285;51.330;4.946;2022-09-19T15:40:43;9.40;;;1.00;;
31686;SDS011;18285;51.330;4.946;2022-09-19T16:05:03;6.17;;;1.20;;
31686;SDS011;18285;51.330;4.946;2022-09-19T16:29:15;10.75;;;2.20;;
31686;SDS011;18285;51.330;4.946;2022-09-19T16:53:27;8.97;;;1.90;;
31686;SDS011;18285;51.330;4.946;2022-09-19T17:17:38;12.60;;;3.75;;
31686;SDS011;18285;51.330;4.946;2022-09-19T17:41:48;10.80;;;3.90;;
31686;SDS011;18285;51.330;4.946;2022-09-19T18:06:00;10.63;;;3.50;;
31686;SDS011;18285;51.330;4.946;2022-09-19T18:30:11;12.02;;;3.55;;
31686;SDS011;18285;51.330;4.946;2022-09-19T18:54:26;8.70;;;2.88;;
31686;SDS011;18285;51.330;4.946;2022-09-19T19:18:43;6.00;;;2.50;;
31686;SDS011;18285;51.330;4.946;2022-09-19T19:42:59;5.25;;;2.53;;
31686;SDS011;18285;51.330;4.946;2022-09-19T20:07:10;15.82;;;4.47;;
31686;SDS011;18285;51.330;4.946;2022-09-19T20:31:22;5.90;;;1.90;;
31686;SDS011;18285;51.330;4.946;2022-09-19T20:55:35;5.18;;;1.75;;
31686;SDS011;18285;51.330;4.946;2022-09-19T21:19:45;4.45;;;1.45;;
31686;SDS011;18285;51.330;4.946;2022-09-19T21:43:57;3.10;;;1.45;;
31686;SDS011;18285;51.330;4.946;2022-09-19T22:08:10;3.30;;;1.40;;
31686;SDS011;18285;51.330;4.946;2022-09-19T22:32:21;3.28;;;1.40;;
31686;SDS011;18285;51.330;4.946;2022-09-19T22:56:32;2.03;;;1.02;;
31686;SDS011;18285;51.330;4.946;2022-09-19T23:20:43;2.17;;;0.95;;
31686;SDS011;18285;51.330;4.946;2022-09-19T23:44:54;2.80;;;1.00;;
